Time;durP1;ratioP1;P1;durP2;ratioP2;P2;SDS_P1;SDS_P2;PMS_P1;PMS_P2;Temp;Humidity;BMP_temperature;BMP_pressure;BME280_temperature;BME280_humidity;BME280_pressure;Samples;Min_cycle;Max_cycle;Signal;HPM_P1;HPM_P2
2023/01/12 00:02:19;;;;;;;14.82;5.18;;;;;;;;;;4930179;28;20071;-73
2023/01/12 00:04:46;;;;;;;12.25;5.70;;;;;;;;;;4927543;28;20051;-69
2023/01/12 00:07:14;;;;;;;13.00;6.45;;;;;;;;;;4962934;28;20046;-71
2023/01/12 00:09:41;;;;;;;12.80;6.68;;;;;;;;;;4944976;28;20687;-70
2023/01/12 00:12:09;;;;;;;19.77;7.68;;;;;;;;;;4957840;28;21114;-71
2023/01/12 00:14:37;;;;;;;18.73;7.47;;;;;;;;;;4962806;28;20039;-70
2023/01/12 00:17:05;;;;;;;18.55;7.90;;;;;;;;;;4960797;28;20197;-71
2023/01/12 00:19:51;;;;;;;18.83;7.78;;;;;;;;;;4972773;28;20060;-70
2023/01/12 00:22:18;;;;;;;14.23;8.23;;;;;;;;;;5004486;28;20139;-69
2023/01/12 00:24:46;;;;;;;18.60;8.38;;;;;;;;;;5003404;28;20532;-70
2023/01/12 00:27:16;;;;;;;16.08;8.07;;;;;;;;;;5004798;28;20564;-70
2023/01/12 00:29:43;;;;;;;17.95;8.32;;;;;;;;;;4985519;28;20049;-70
2023/01/12 00:32:20;;;;;;;20.30;7.25;;;;;;;;;;5002576;28;20054;-71
2023/01/12 00:34:47;;;;;;;20.08;7.97;;;;;;;;;;4994437;28;20041;-69
2023/01/12 00:37:14;;;;;;;17.30;8.18;;;;;;;;;;5004492;28;21079;-72
2023/01/12 00:39:41;;;;;;;21.42;8.57;;;;;;;;;;4991909;28;20041;-71
2023/01/12 00:47:37;;;;;;;15.55;7.90;;;;;;;;;;5004747;28;20052;-70
2023/01/12 00:50:03;;;;;;;16.33;8.70;;;;;;;;;;4994221;28;20038;-72
2023/01/12 00:52:30;;;;;;;16.05;7.78;;;;;;;;;;4992983;28;20240;-72
2023/01/12 00:54:57;;;;;;;23.75;7.82;;;;;;;;;;4985128;28;20112;-72
2023/01/12 00:57:24;;;;;;;16.40;8.38;;;;;;;;;;5015493;28;20060;-71
2023/01/12 00:59:53;;;;;;;17.75;8.27;;;;;;;;;;5030234;28;20532;-70
2023/01/12 01:02:20;;;;;;;14.68;7.28;;;;;;;;;;5029547;28;20484;-69
2023/01/12 01:04:47;;;;;;;14.35;7.93;;;;;;;;;;5009462;28;20111;-70
2023/01/12 01:07:14;;;;;;;19.38;8.05;;;;;;;;;;5023542;28;20080;-71
2023/01/12 01:09:43;;;;;;;15.90;8.93;;;;;;;;;;5029785;28;20120;-70
2023/01/12 01:12:10;;;;;;;12.70;8.00;;;;;;;;;;5020564;28;20798;-70
2023/01/12 01:14:36;;;;;;;17.42;8.70;;;;;;;;;;5008793;28;20033;-70
2023/01/12 01:17:03;;;;;;;17.05;8.70;;;;;;;;;;5029649;28;20068;-66
2023/01/12 01:19:29;;;;;;;19.05;8.30;;;;;;;;;;5027092;28;20485;-69
2023/01/12 01:21:56;;;;;;;18.55;8.75;;;;;;;;;;5030191;28;20041;-70
2023/01/12 01:24:23;;;;;;;21.67;8.70;;;;;;;;;;5005706;28;20033;-69
2023/01/12 01:26:50;;;;;;;15.07;8.82;;;;;;;;;;5029066;28;20056;-70
2023/01/12 01:29:17;;;;;;;19.77;8.65;;;;;;;;;;5022086;28;20033;-70
2023/01/12 01:31:46;;;;;;;27.45;8.00;;;;;;;;;;5028721;28;20060;-68
2023/01/12 01:34:13;;;;;;;19.20;9.10;;;;;;;;;;5029198;28;20076;-70
2023/01/12 01:36:40;;;;;;;21.27;10.27;;;;;;;;;;5027940;28;20036;-70
2023/01/12 01:39:06;;;;;;;18.50;8.93;;;;;;;;;;5030778;28;20584;-70
2023/01/12 01:41:33;;;;;;;23.45;8.65;;;;;;;;;;5030050;28;20052;-72
2023/01/12 01:44:01;;;;;;;17.23;8.25;;;;;;;;;;5029905;28;20041;-71
2023/01/12 01:46:31;;;;;;;20.27;9.23;;;;;;;;;;5028999;28;20452;-70
2023/01/12 01:49:01;;;;;;;17.15;8.68;;;;;;;;;;5028502;28;20460;-70
2023/01/12 01:51:28;;;;;;;16.83;8.23;;;;;;;;;;5027294;28;20084;-70
2023/01/12 01:53:55;;;;;;;22.33;9.63;;;;;;;;;;5028440;28;20073;-68
2023/01/12 01:56:26;;;;;;;21.38;8.13;;;;;;;;;;5027661;28;20037;-69
2023/01/12 01:58:56;;;;;;;17.85;8.82;;;;;;;;;;5029611;28;20041;-72
2023/01/12 02:01:23;;;;;;;17.05;9.10;;;;;;;;;;5027724;28;20769;-71
2023/01/12 02:03:51;;;;;;;16.02;8.32;;;;;;;;;;5013094;28;20042;-71
2023/01/12 02:06:19;;;;;;;17.08;8.95;;;;;;;;;;5025032;28;20691;-70
2023/01/12 02:09:00;;;;;;;18.10;9.90;;;;;;;;;;5028666;28;20056;-70
2023/01/12 02:17:15;;;;;;;22.63;10.20;;;;;;;;;;5027480;28;20137;-68
2023/01/12 02:20:00;;;;;;;28.20;11.57;;;;;;;;;;5027191;28;20045;-70
2023/01/12 02:23:22;;;;;;;16.23;10.30;;;;;;;;;;4993835;28;20125;-67
2023/01/12 02:26:04;;;;;;;31.42;12.90;;;;;;;;;;4936192;28;20058;-67
2023/01/12 02:28:52;;;;;;;23.27;11.80;;;;;;;;;;4987522;28;20038;-67
2023/01/12 02:31:36;;;;;;;25.52;11.40;;;;;;;;;;4994081;28;20054;-68
2023/01/12 02:34:08;;;;;;;24.27;11.90;;;;;;;;;;4995963;28;20060;-67
2023/01/12 02:36:37;;;;;;;26.15;9.05;;;;;;;;;;4993599;28;20041;-67
2023/01/12 02:39:04;;;;;;;13.80;7.85;;;;;;;;;;4994147;28;20037;-69
2023/01/12 02:44:33;;;;;;;22.60;9.60;;;;;;;;;;4993991;28;20469;-73
2023/01/12 02:47:01;;;;;;;20.02;9.23;;;;;;;;;;4972373;28;20601;-71
2023/01/12 02:49:31;;;;;;;21.15;10.50;;;;;;;;;;4974260;28;20104;-70
2023/01/12 02:52:00;;;;;;;24.30;10.82;;;;;;;;;;4994507;28;20054;-69
2023/01/12 02:54:28;;;;;;;20.25;10.57;;;;;;;;;;5018432;28;20059;-70
2023/01/12 02:56:59;;;;;;;19.77;11.27;;;;;;;;;;5025659;28;20040;-71
2023/01/12 02:59:27;;;;;;;17.05;9.40;;;;;;;;;;5006987;28;20048;-71
2023/01/12 03:02:01;;;;;;;20.25;10.82;;;;;;;;;;5026956;28;20071;-68
2023/01/12 03:04:28;;;;;;;18.67;9.45;;;;;;;;;;5004265;28;20322;-71
2023/01/12 03:06:58;;;;;;;26.58;11.15;;;;;;;;;;5007692;28;20043;-71
2023/01/12 03:09:28;;;;;;;23.98;10.68;;;;;;;;;;5016669;28;20048;-70
2023/01/12 03:11:56;;;;;;;27.38;10.73;;;;;;;;;;5028488;28;20061;-74
2023/01/12 03:14:23;;;;;;;23.15;12.02;;;;;;;;;;5025944;28;20050;-69
2023/01/12 03:16:51;;;;;;;21.35;11.18;;;;;;;;;;5008743;28;20048;-71
2023/01/12 03:19:40;;;;;;;23.50;11.25;;;;;;;;;;5011750;28;20561;-71
2023/01/12 03:22:09;;;;;;;18.23;10.60;;;;;;;;;;5002901;28;20120;-70
2023/01/12 03:24:46;;;;;;;35.90;12.52;;;;;;;;;;5001680;28;20123;-68
2023/01/12 03:27:20;;;;;;;22.75;9.85;;;;;;;;;;5002985;28;20046;-69
2023/01/12 03:29:48;;;;;;;;;;;;;;;;;;5003994;28;20740;-70
2023/01/12 03:32:14;;;;;;;21.15;10.00;;;;;;;;;;5003144;28;19925;-71
2023/01/12 03:35:01;;;;;;;30.83;11.27;;;;;;;;;;5002405;28;20569;-70
2023/01/12 03:37:39;;;;;;;22.58;10.52;;;;;;;;;;4974803;28;20458;-71
2023/01/12 03:40:18;;;;;;;22.13;10.70;;;;;;;;;;4966782;28;20523;-69
2023/01/12 03:43:04;;;;;;;23.33;11.10;;;;;;;;;;4977026;28;20061;-72
2023/01/12 03:45:38;;;;;;;29.45;11.13;;;;;;;;;;4976988;28;20073;-70
2023/01/12 03:48:23;;;;;;;20.77;10.07;;;;;;;;;;4977037;28;20042;-71
2023/01/12 03:50:57;;;;;;;28.25;12.98;;;;;;;;;;4976125;28;20055;-71
2023/01/12 03:53:24;;;;;;;24.80;11.00;;;;;;;;;;4964332;28;20053;-70
2023/01/12 03:55:52;;;;;;;21.48;10.48;;;;;;;;;;4975590;28;20042;-70
2023/01/12 03:58:19;;;;;;;24.17;12.88;;;;;;;;;;4975025;28;20046;-70
2023/01/12 04:00:46;;;;;;;26.65;12.55;;;;;;;;;;4976849;28;20748;-71
2023/01/12 04:03:16;;;;;;;23.48;12.23;;;;;;;;;;4976249;28;21746;-71
2023/01/12 04:05:43;;;;;;;25.42;11.93;;;;;;;;;;4974867;28;20038;-71
2023/01/12 04:08:11;;;;;;;29.65;13.13;;;;;;;;;;4976515;28;20050;-72
2023/01/12 04:10:37;;;;;;;22.50;12.23;;;;;;;;;;4975897;28;20054;-71
2023/01/12 04:13:04;;;;;;;28.77;13.35;;;;;;;;;;4953480;28;20065;-71
2023/01/12 04:15:31;;;;;;;31.00;16.33;;;;;;;;;;5009557;28;20080;-70
2023/01/12 04:17:57;;;;;;;31.92;14.57;;;;;;;;;;5023384;28;20132;-70
2023/01/12 04:20:24;;;;;;;20.05;11.82;;;;;;;;;;5023273;28;20095;-69
2023/01/12 04:22:51;;;;;;;43.47;15.35;;;;;;;;;;5024807;28;20041;-68
2023/01/12 04:25:19;;;;;;;29.95;14.65;;;;;;;;;;5024854;28;20048;-69
2023/01/12 04:27:47;;;;;;;40.70;13.65;;;;;;;;;;5022468;28;20142;-68
2023/01/12 04:30:14;;;;;;;30.80;14.50;;;;;;;;;;5002152;28;20087;-69
2023/01/12 04:32:42;;;;;;;32.95;14.10;;;;;;;;;;5026815;28;20107;-71
2023/01/12 04:35:10;;;;;;;26.35;12.77;;;;;;;;;;5028183;28;21848;-71
2023/01/12 04:37:37;;;;;;;33.90;14.98;;;;;;;;;;5024517;28;20037;-70
2023/01/12 04:40:05;;;;;;;33.00;14.18;;;;;;;;;;5026792;28;20087;-70
2023/01/12 04:45:16;;;;;;;28.73;14.23;;;;;;;;;;5029162;28;20520;-71
2023/01/12 04:47:43;;;;;;;28.73;15.82;;;;;;;;;;5025013;28;20079;-71
2023/01/12 04:50:10;;;;;;;31.77;15.10;;;;;;;;;;5022189;28;20043;-72
2023/01/12 04:52:37;;;;;;;28.83;13.55;;;;;;;;;;5024425;28;20823;-71
2023/01/12 04:55:05;;;;;;;44.42;15.05;;;;;;;;;;5026296;28;20051;-71
2023/01/12 04:57:32;;;;;;;36.30;15.35;;;;;;;;;;5026344;28;20108;-71
2023/01/12 04:59:58;;;;;;;27.85;14.25;;;;;;;;;;5028531;28;20055;-70
2023/01/12 05:02:25;;;;;;;32.30;15.77;;;;;;;;;;5030405;28;20029;-70
2023/01/12 05:04:52;;;;;;;24.35;13.43;;;;;;;;;;5030004;28;20045;-71
2023/01/12 05:07:18;;;;;;;31.70;14.10;;;;;;;;;;5028675;28;20064;-71
2023/01/12 05:12:30;;;;;;;32.67;14.23;;;;;;;;;;5027657;28;20065;-70
2023/01/12 05:14:57;;;;;;;32.85;14.35;;;;;;;;;;5012013;28;20034;-70
2023/01/12 05:17:23;;;;;;;26.85;14.25;;;;;;;;;;5016577;28;20048;-70
2023/01/12 05:19:50;;;;;;;30.83;15.30;;;;;;;;;;5032089;28;20111;-69
2023/01/12 05:22:16;;;;;;;32.00;14.98;;;;;;;;;;5031655;28;20394;-71
2023/01/12 05:24:43;;;;;;;31.20;13.85;;;;;;;;;;5032213;28;20048;-69
2023/01/12 05:27:10;;;;;;;38.95;16.52;;;;;;;;;;5027523;28;20049;-71
2023/01/12 05:29:37;;;;;;;26.25;12.73;;;;;;;;;;5016812;28;20105;-69
2023/01/12 05:32:03;;;;;;;43.38;15.57;;;;;;;;;;5028703;28;20081;-70
2023/01/12 05:34:30;;;;;;;43.17;15.70;;;;;;;;;;5009978;28;20074;-70
2023/01/12 05:36:57;;;;;;;33.72;14.65;;;;;;;;;;5027693;28;20037;-70
2023/01/12 05:39:23;;;;;;;29.52;13.98;;;;;;;;;;5020324;28;20045;-70
2023/01/12 05:44:35;;;;;;;32.70;14.88;;;;;;;;;;5028191;28;20128;-70
2023/01/12 05:47:02;;;;;;;26.45;13.68;;;;;;;;;;5024293;28;20402;-69
2023/01/12 05:49:28;;;;;;;32.20;13.32;;;;;;;;;;4988179;28;20119;-70
2023/01/12 05:51:55;;;;;;;31.85;13.10;;;;;;;;;;5029454;28;20053;-70
2023/01/12 05:54:22;;;;;;;27.25;13.43;;;;;;;;;;5007700;28;20568;-71
2023/01/12 05:56:50;;;;;;;34.78;13.30;;;;;;;;;;5004781;28;20057;-69
2023/01/12 05:59:16;;;;;;;20.75;11.32;;;;;;;;;;5022918;28;20037;-70
2023/01/12 06:01:43;;;;;;;27.42;13.73;;;;;;;;;;5026666;28;20037;-69
2023/01/12 06:04:10;;;;;;;22.67;12.10;;;;;;;;;;5028598;28;20690;-70
2023/01/12 06:06:36;;;;;;;19.63;10.02;;;;;;;;;;5028299;28;20045;-69
2023/01/12 06:09:03;;;;;;;24.25;11.07;;;;;;;;;;5009584;28;20048;-69
2023/01/12 06:14:15;;;;;;;18.45;9.02;;;;;;;;;;5029295;28;20095;-70
2023/01/12 06:16:42;;;;;;;16.55;8.77;;;;;;;;;;5027622;28;20057;-70
2023/01/12 06:19:10;;;;;;;17.17;9.57;;;;;;;;;;5027742;28;20093;-70
2023/01/12 06:21:37;;;;;;;16.55;8.35;;;;;;;;;;5011031;28;20552;-70
2023/01/12 06:24:04;;;;;;;26.95;7.97;;;;;;;;;;5030632;28;20144;-70
2023/01/12 06:26:31;;;;;;;16.88;6.45;;;;;;;;;;5031328;28;20612;-70
2023/01/12 06:28:57;;;;;;;27.10;7.97;;;;;;;;;;5014025;28;20182;-69
2023/01/12 06:31:24;;;;;;;15.50;8.00;;;;;;;;;;5029833;28;20400;-70
2023/01/12 06:34:11;;;;;;;20.67;7.95;;;;;;;;;;4952548;28;20122;-70
2023/01/12 06:36:38;;;;;;;11.25;6.88;;;;;;;;;;4955223;28;20093;-70
2023/01/12 06:39:04;;;;;;;17.38;7.20;;;;;;;;;;4938080;28;20117;-69
2023/01/12 06:44:18;;;;;;;16.92;7.78;;;;;;;;;;4953774;28;20299;-70
2023/01/12 06:46:45;;;;;;;24.50;7.47;;;;;;;;;;4941141;28;20039;-70
2023/01/12 06:49:11;;;;;;;16.85;7.65;;;;;;;;;;4953622;28;20150;-69
2023/01/12 06:51:38;;;;;;;12.88;7.28;;;;;;;;;;4953868;28;20054;-69
2023/01/12 06:54:35;;;;;;;17.45;8.25;;;;;;;;;;4955134;28;20079;-69
2023/01/12 06:57:03;;;;;;;15.48;7.05;;;;;;;;;;4893256;28;20038;-68
2023/01/12 06:59:29;;;;;;;16.92;6.78;;;;;;;;;;4955636;28;20076;-68
2023/01/12 07:01:56;;;;;;;18.48;7.03;;;;;;;;;;4954250;28;20031;-69
2023/01/12 07:04:23;;;;;;;26.27;8.88;;;;;;;;;;4937228;28;20087;-69
2023/01/12 07:06:54;;;;;;;15.30;8.35;;;;;;;;;;4940828;28;20113;-69
2023/01/12 07:09:21;;;;;;;28.35;7.22;;;;;;;;;;4943380;28;20039;-69
2023/01/12 07:11:47;;;;;;;19.25;7.93;;;;;;;;;;4981061;28;20525;-69
2023/01/12 07:14:14;;;;;;;16.38;7.10;;;;;;;;;;5028564;28;20095;-69
2023/01/12 07:16:41;;;;;;;20.92;8.15;;;;;;;;;;5026873;28;20045;-70
2023/01/12 07:19:07;;;;;;;19.30;8.38;;;;;;;;;;5014112;28;20033;-69
2023/01/12 07:21:34;;;;;;;23.05;9.68;;;;;;;;;;5028229;28;20041;-68
2023/01/12 07:24:01;;;;;;;18.38;9.23;;;;;;;;;;5030108;28;20088;-69
2023/01/12 07:26:27;;;;;;;19.55;8.27;;;;;;;;;;5028194;28;20063;-69
2023/01/12 07:28:55;;;;;;;17.52;8.80;;;;;;;;;;5026287;28;20539;-69
2023/01/12 07:31:22;;;;;;;19.88;8.30;;;;;;;;;;5024354;28;20331;-69
2023/01/12 07:33:51;;;;;;;14.85;7.20;;;;;;;;;;5027365;28;20044;-68
2023/01/12 07:36:22;;;;;;;14.70;7.78;;;;;;;;;;5008726;28;20056;-70
2023/01/12 07:38:48;;;;;;;28.30;8.23;;;;;;;;;;5017278;28;20960;-69
2023/01/12 07:44:00;;;;;;;20.77;9.30;;;;;;;;;;5026915;28;20052;-69
2023/01/12 07:46:27;;;;;;;20.83;8.45;;;;;;;;;;5026783;28;20037;-69
2023/01/12 07:48:53;;;;;;;22.63;7.00;;;;;;;;;;5027339;28;20114;-69
2023/01/12 07:51:20;;;;;;;17.90;7.35;;;;;;;;;;5006097;28;20085;-69
2023/01/12 07:53:47;;;;;;;13.85;7.05;;;;;;;;;;5019411;28;20124;-69
2023/01/12 07:56:15;;;;;;;13.77;7.28;;;;;;;;;;5018095;28;20394;-69
2023/01/12 07:58:48;;;;;;;15.90;6.88;;;;;;;;;;5026035;28;20037;-69
2023/01/12 08:01:14;;;;;;;14.82;6.65;;;;;;;;;;5027348;28;20042;-70
2023/01/12 08:03:41;;;;;;;10.63;6.00;;;;;;;;;;5019570;28;20076;-69
2023/01/12 08:06:08;;;;;;;19.50;5.78;;;;;;;;;;5017799;28;20061;-70
2023/01/12 08:08:35;;;;;;;11.02;5.03;;;;;;;;;;5021942;28;20060;-70
2023/01/12 08:11:06;;;;;;;15.25;5.72;;;;;;;;;;5000355;28;20042;-70
2023/01/12 08:13:33;;;;;;;13.35;5.20;;;;;;;;;;5023031;28;20981;-69
2023/01/12 08:16:05;;;;;;;11.95;5.25;;;;;;;;;;5013780;28;20152;-69
2023/01/12 08:18:44;;;;;;;12.45;6.38;;;;;;;;;;5032656;28;20049;-69
2023/01/12 08:21:13;;;;;;;12.57;5.82;;;;;;;;;;5030969;28;20129;-69
2023/01/12 08:23:45;;;;;;;10.25;5.03;;;;;;;;;;5030225;28;20091;-69
2023/01/12 08:26:16;;;;;;;8.38;4.28;;;;;;;;;;5026667;28;20069;-70
2023/01/12 08:28:46;;;;;;;16.95;5.95;;;;;;;;;;5025417;28;20112;-70
2023/01/12 08:31:14;;;;;;;16.58;4.55;;;;;;;;;;5030192;28;20032;-68
2023/01/12 08:33:41;;;;;;;9.43;4.57;;;;;;;;;;5030398;28;20116;-69
2023/01/12 08:36:10;;;;;;;12.32;4.28;;;;;;;;;;5030358;28;20035;-69
2023/01/12 08:38:38;;;;;;;10.15;4.68;;;;;;;;;;5012185;28;20048;-69
2023/01/12 08:44:02;;;;;;;9.20;4.13;;;;;;;;;;5031365;28;20060;-70
2023/01/12 08:46:30;;;;;;;13.65;4.60;;;;;;;;;;5029671;28;20037;-69
2023/01/12 08:48:57;;;;;;;14.07;5.53;;;;;;;;;;5035215;28;20034;-69
2023/01/12 08:51:23;;;;;;;7.60;4.25;;;;;;;;;;5018688;28;20054;-69
2023/01/12 08:53:50;;;;;;;11.35;4.38;;;;;;;;;;5017410;28;20057;-69
2023/01/12 08:56:22;;;;;;;11.60;4.65;;;;;;;;;;5014609;28;20096;-68
2023/01/12 08:58:49;;;;;;;13.02;4.55;;;;;;;;;;5016195;28;20466;-69
2023/01/12 09:01:16;;;;;;;6.57;3.75;;;;;;;;;;5017957;28;20139;-69
2023/01/12 09:03:47;;;;;;;12.63;4.15;;;;;;;;;;5014526;28;20248;-69
2023/01/12 09:06:22;;;;;;;9.00;4.28;;;;;;;;;;5015432;28;20482;-69
2023/01/12 09:08:53;;;;;;;10.80;4.88;;;;;;;;;;5014231;28;20041;-69
2023/01/12 09:11:19;;;;;;;5.88;3.50;;;;;;;;;;5015105;28;20406;-68
2023/01/12 09:13:47;;;;;;;13.50;4.35;;;;;;;;;;5016559;28;20120;-69
2023/01/12 09:16:15;;;;;;;8.45;3.60;;;;;;;;;;5014767;28;20133;-70
2023/01/12 09:18:42;;;;;;;22.63;4.90;;;;;;;;;;4990680;28;20478;-70
2023/01/12 09:21:13;;;;;;;9.05;3.97;;;;;;;;;;5010920;28;20030;-69
2023/01/12 09:23:39;;;;;;;9.02;5.05;;;;;;;;;;5006035;28;20041;-69
2023/01/12 09:26:07;;;;;;;13.10;4.25;;;;;;;;;;5008123;28;20037;-70
2023/01/12 09:28:34;;;;;;;7.97;3.97;;;;;;;;;;5009661;28;20033;-70
2023/01/12 09:31:08;;;;;;;28.40;5.68;;;;;;;;;;5010831;28;20117;-69
2023/01/12 09:33:35;;;;;;;7.15;3.88;;;;;;;;;;5008782;28;20057;-69
2023/01/12 09:36:04;;;;;;;9.52;3.97;;;;;;;;;;5009511;28;20044;-69
2023/01/12 09:38:31;;;;;;;6.25;3.05;;;;;;;;;;5008742;28;20124;-69
2023/01/12 09:40:59;;;;;;;5.45;2.28;;;;;;;;;;5009221;28;20033;-69
2023/01/12 09:46:57;;;;;;;2.83;1.02;;;;;;;;;;5009982;28;20048;-69
2023/01/12 09:49:04;;;;;;;;;;;;;;;;;;5012735;28;20049;-70
2023/01/12 09:51:36;;;;;;;3.72;1.38;;;;;;;;;;5017511;28;20041;-69
2023/01/12 09:54:04;;;;;;;2.83;1.02;;;;;;;;;;5028199;28;20580;-69
2023/01/12 09:56:39;;;;;;;2.05;0.80;;;;;;;;;;5026682;28;20045;-70
2023/01/12 09:59:06;;;;;;;7.20;1.50;;;;;;;;;;5029105;28;20047;-68
2023/01/12 10:01:34;;;;;;;2.85;0.90;;;;;;;;;;5027519;28;20036;-70
2023/01/12 10:04:02;;;;;;;4.10;1.17;;;;;;;;;;5028382;28;21019;-69
2023/01/12 10:06:28;;;;;;;2.50;0.88;;;;;;;;;;5026286;28;20041;-69
2023/01/12 10:08:55;;;;;;;3.22;1.25;;;;;;;;;;5029273;28;20119;-71
2023/01/12 10:11:33;;;;;;;2.78;1.17;;;;;;;;;;5026920;28;20756;-69
2023/01/12 10:14:12;;;;;;;4.00;1.20;;;;;;;;;;5004763;28;20064;-68
2023/01/12 10:16:38;;;;;;;3.45;1.20;;;;;;;;;;5026834;28;20462;-69
2023/01/12 10:19:17;;;;;;;3.97;1.10;;;;;;;;;;5027572;28;20042;-68
2023/01/12 10:21:43;;;;;;;3.42;1.25;;;;;;;;;;5026335;28;20049;-67
2023/01/12 10:24:14;;;;;;;4.07;1.23;;;;;;;;;;5027369;28;20443;-68
2023/01/12 10:26:42;;;;;;;7.55;1.35;;;;;;;;;;5026417;28;20037;-67
2023/01/12 10:29:10;;;;;;;2.50;1.00;;;;;;;;;;5035821;28;20037;-69
2023/01/12 10:31:37;;;;;;;3.92;1.27;;;;;;;;;;5036435;28;20048;-68
2023/01/12 10:34:08;;;;;;;3.75;1.27;;;;;;;;;;5039529;28;20055;-68
2023/01/12 10:36:37;;;;;;;5.57;1.48;;;;;;;;;;5038203;28;20037;-69
2023/01/12 10:39:04;;;;;;;4.80;1.23;;;;;;;;;;5040980;28;20030;-69
2023/01/12 10:41:32;;;;;;;3.55;1.40;;;;;;;;;;5036347;28;20459;-69
2023/01/12 10:43:59;;;;;;;4.65;1.50;;;;;;;;;;5027161;28;20036;-69
2023/01/12 10:46:27;;;;;;;4.30;1.65;;;;;;;;;;5026178;28;20041;-69
2023/01/12 10:48:54;;;;;;;3.72;1.60;;;;;;;;;;5029788;28;20065;-69
2023/01/12 10:51:34;;;;;;;4.70;1.42;;;;;;;;;;5032641;28;20087;-69
2023/01/12 10:54:20;;;;;;;4.18;1.52;;;;;;;;;;5033163;28;20053;-69
2023/01/12 10:56:58;;;;;;;5.55;1.65;;;;;;;;;;5028660;28;20045;-69
2023/01/12 10:59:28;;;;;;;4.90;1.48;;;;;;;;;;5026697;28;20588;-69
2023/01/12 11:02:07;;;;;;;5.32;1.30;;;;;;;;;;5026806;28;21962;-68
2023/01/12 11:04:38;;;;;;;5.72;1.60;;;;;;;;;;5026727;28;20041;-69
2023/01/12 11:07:24;;;;;;;2.83;0.90;;;;;;;;;;5027609;28;20038;-69
2023/01/12 11:09:51;;;;;;;3.28;1.10;;;;;;;;;;5027477;28;20408;-69
2023/01/12 11:12:21;;;;;;;5.57;1.15;;;;;;;;;;5028050;28;20045;-69
2023/01/12 11:14:58;;;;;;;2.78;0.85;;;;;;;;;;5027564;28;20081;-69
2023/01/12 11:17:36;;;;;;;3.55;0.98;;;;;;;;;;5026776;28;20098;-69
2023/01/12 11:20:04;;;;;;;2.08;0.73;;;;;;;;;;5027310;28;20033;-69
2023/01/12 11:22:35;;;;;;;2.53;0.95;;;;;;;;;;5027007;28;20037;-69
2023/01/12 11:25:13;;;;;;;8.18;1.30;;;;;;;;;;5026830;28;20186;-68
2023/01/12 11:27:39;;;;;;;2.90;0.90;;;;;;;;;;5025592;28;20081;-68
2023/01/12 11:30:11;;;;;;;3.22;1.02;;;;;;;;;;5027063;28;20047;-70
2023/01/12 11:32:42;;;;;;;2.72;1.00;;;;;;;;;;5025538;28;20134;-69
2023/01/12 11:35:11;;;;;;;1.98;0.80;;;;;;;;;;5024869;28;20752;-70
2023/01/12 11:37:39;;;;;;;2.40;0.90;;;;;;;;;;5024550;28;20052;-69
2023/01/12 11:40:08;;;;;;;2.88;0.85;;;;;;;;;;5027507;28;20118;-69
2023/01/12 11:45:44;;;;;;;3.10;0.90;;;;;;;;;;5025157;28;20083;-68
2023/01/12 11:48:22;;;;;;;3.95;0.98;;;;;;;;;;5017483;28;20056;-68
2023/01/12 11:50:49;;;;;;;2.33;0.90;;;;;;;;;;5026265;28;20063;-69
2023/01/12 11:53:20;;;;;;;2.30;0.93;;;;;;;;;;5018956;28;20523;-70
2023/01/12 11:55:50;;;;;;;3.75;1.23;;;;;;;;;;5026061;28;20431;-70
2023/01/12 11:58:22;;;;;;;1.95;0.80;;;;;;;;;;5027599;28;20437;-70
2023/01/12 12:00:54;;;;;;;3.33;0.80;;;;;;;;;;5028820;28;20045;-70
2023/01/12 12:03:23;;;;;;;1.98;0.80;;;;;;;;;;5029260;28;20096;-70
2023/01/12 12:05:57;;;;;;;2.50;0.90;;;;;;;;;;5033224;28;20105;-71
2023/01/12 12:08:23;;;;;;;;;;;;;;;;;;5023613;28;20057;-69
2023/01/12 12:10:59;;;;;;;2.90;0.95;;;;;;;;;;5008899;28;19921;-69
2023/01/12 12:13:31;;;;;;;1.98;0.70;;;;;;;;;;5026799;28;20041;-70
2023/01/12 12:16:01;;;;;;;1.00;0.52;;;;;;;;;;5026628;28;20125;-69
2023/01/12 12:18:46;;;;;;;2.28;0.80;;;;;;;;;;5026133;28;20097;-71
2023/01/12 12:21:19;;;;;;;1.77;0.70;;;;;;;;;;5029654;28;20044;-72
2023/01/12 12:24:11;;;;;;;3.07;0.90;;;;;;;;;;5028316;28;20048;-71
2023/01/12 12:26:41;;;;;;;3.33;1.00;;;;;;;;;;5027076;28;20061;-72
2023/01/12 12:29:17;;;;;;;2.67;1.00;;;;;;;;;;5029522;28;20038;-70
2023/01/12 12:31:59;;;;;;;2.45;0.80;;;;;;;;;;5027485;28;20053;-69
2023/01/12 12:34:34;;;;;;;2.38;0.93;;;;;;;;;;5027187;28;20041;-70
2023/01/12 12:37:16;;;;;;;3.13;1.15;;;;;;;;;;5025874;28;20099;-69
2023/01/12 12:39:56;;;;;;;2.58;0.82;;;;;;;;;;5006735;28;20056;-70
2023/01/12 12:45:26;;;;;;;2.10;0.77;;;;;;;;;;5024657;28;20095;-69
2023/01/12 12:47:59;;;;;;;2.08;0.68;;;;;;;;;;5023105;28;20041;-69
2023/01/12 12:50:35;;;;;;;3.20;1.08;;;;;;;;;;5008353;28;20155;-70
2023/01/12 12:53:22;;;;;;;2.97;0.80;;;;;;;;;;5027273;28;20059;-70
2023/01/12 12:55:50;;;;;;;2.83;0.90;;;;;;;;;;5028680;28;20049;-70
2023/01/12 12:58:23;;;;;;;3.90;0.90;;;;;;;;;;5010528;28;20127;-70
2023/01/12 13:00:50;;;;;;;1.77;0.77;;;;;;;;;;5028189;28;20485;-71
2023/01/12 13:03:35;;;;;;;2.70;1.00;;;;;;;;;;5010300;28;20144;-69
2023/01/12 13:06:12;;;;;;;3.75;0.95;;;;;;;;;;5027029;28;20042;-72
2023/01/12 13:08:38;;;;;;;2.03;0.75;;;;;;;;;;5028740;28;20106;-70
2023/01/12 13:11:05;;;;;;;3.88;1.05;;;;;;;;;;5022976;28;20041;-71
2023/01/12 13:13:33;;;;;;;2.95;0.90;;;;;;;;;;5005939;28;20072;-71
2023/01/12 13:16:20;;;;;;;2.75;0.73;;;;;;;;;;5028096;28;20064;-70
2023/01/12 13:18:54;;;;;;;2.60;0.98;;;;;;;;;;5016067;28;21077;-72
2023/01/12 13:21:27;;;;;;;2.25;0.70;;;;;;;;;;5028816;28;20041;-70
2023/01/12 13:23:55;;;;;;;2.53;0.70;;;;;;;;;;5027527;28;20419;-69
2023/01/12 13:26:33;;;;;;;2.65;0.80;;;;;;;;;;5027971;28;20790;-70
2023/01/12 13:29:19;;;;;;;3.60;1.05;;;;;;;;;;5022262;28;20041;-69
2023/01/12 13:31:45;;;;;;;2.75;1.02;;;;;;;;;;5025994;28;20076;-68
2023/01/12 13:34:30;;;;;;;2.88;0.70;;;;;;;;;;5028492;28;20592;-68
2023/01/12 13:37:16;;;;;;;4.90;0.95;;;;;;;;;;5009206;28;20069;-67
2023/01/12 13:39:54;;;;;;;3.13;0.68;;;;;;;;;;5028044;28;20041;-70
2023/01/12 13:45:11;;;;;;;3.92;1.00;;;;;;;;;;5024696;28;20044;-67
2023/01/12 13:47:38;;;;;;;6.82;1.00;;;;;;;;;;5026209;28;20132;-69
2023/01/12 13:50:04;;;;;;;2.47;0.80;;;;;;;;;;5028734;28;20040;-69
2023/01/12 13:52:34;;;;;;;3.90;0.90;;;;;;;;;;5028062;28;20062;-70
2023/01/12 13:55:01;;;;;;;3.17;1.08;;;;;;;;;;5011128;28;20143;-70
2023/01/12 13:57:29;;;;;;;5.88;1.13;;;;;;;;;;5002414;28;20037;-69
2023/01/12 14:00:03;;;;;;;5.55;1.40;;;;;;;;;;5009636;28;20034;-72
2023/01/12 14:02:31;;;;;;;3.10;1.27;;;;;;;;;;5022310;28;20056;-70
2023/01/12 14:05:15;;;;;;;3.30;1.13;;;;;;;;;;5015585;28;20532;-68
2023/01/12 14:07:45;;;;;;;9.95;2.13;;;;;;;;;;5029677;28;20048;-70
2023/01/12 14:10:15;;;;;;;3.55;1.30;;;;;;;;;;5028896;28;20037;-69
2023/01/12 14:12:59;;;;;;;3.78;1.38;;;;;;;;;;5028623;28;20417;-71
2023/01/12 14:18:13;;;;;;;4.53;1.40;;;;;;;;;;5029983;28;20072;-71
2023/01/12 14:20:44;;;;;;;3.53;1.38;;;;;;;;;;5010046;28;20572;-70
2023/01/12 14:23:20;;;;;;;4.82;1.30;;;;;;;;;;5026083;28;20048;-70
2023/01/12 14:25:47;;;;;;;3.30;1.30;;;;;;;;;;5025966;28;20351;-68
2023/01/12 14:28:17;;;;;;;4.43;1.25;;;;;;;;;;5026557;28;20149;-68
2023/01/12 14:30:49;;;;;;;3.40;1.23;;;;;;;;;;5028008;28;20231;-69
2023/01/12 14:33:20;;;;;;;3.85;1.13;;;;;;;;;;5010397;28;20057;-69
2023/01/12 14:35:48;;;;;;;4.70;1.23;;;;;;;;;;5026525;28;20072;-70
2023/01/12 14:38:17;;;;;;;4.03;1.77;;;;;;;;;;5028136;28;20049;-69
2023/01/12 14:46:45;;;;;;;3.15;1.20;;;;;;;;;;4958802;28;20054;-68
2023/01/12 14:49:27;;;;;;;5.57;1.67;;;;;;;;;;4961846;28;20189;-69
2023/01/12 14:51:56;;;;;;;4.32;1.35;;;;;;;;;;4960708;28;20788;-70
2023/01/12 14:54:43;;;;;;;7.32;2.10;;;;;;;;;;4936527;28;20053;-69
2023/01/12 14:57:29;;;;;;;3.08;1.45;;;;;;;;;;4937486;28;20800;-69
2023/01/12 14:59:56;;;;;;;2.95;1.00;;;;;;;;;;4917683;28;20035;-69
2023/01/12 15:02:31;;;;;;;3.38;1.20;;;;;;;;;;4931991;28;20045;-70
2023/01/12 15:04:59;;;;;;;3.67;1.00;;;;;;;;;;4924682;28;20583;-70
2023/01/12 15:07:30;;;;;;;2.40;0.77;;;;;;;;;;4929461;28;20039;-71
2023/01/12 15:09:58;;;;;;;2.78;0.98;;;;;;;;;;4914041;28;20046;-70
2023/01/12 15:12:34;;;;;;;3.75;0.90;;;;;;;;;;4935920;28;20070;-70
2023/01/12 15:15:13;;;;;;;3.53;0.93;;;;;;;;;;4941278;28;20042;-71
2023/01/12 15:25:56;;;;;;;2.42;0.82;;;;;;;;;;4979220;28;20734;-69
2023/01/12 15:28:26;;;;;;;4.93;1.08;;;;;;;;;;4956599;28;20170;-70
2023/01/12 15:30:53;;;;;;;2.95;0.95;;;;;;;;;;4968927;28;20050;-70
2023/01/12 15:33:20;;;;;;;2.25;0.88;;;;;;;;;;5006432;28;20046;-69
2023/01/12 15:35:47;;;;;;;2.03;0.98;;;;;;;;;;5011878;28;20100;-69
2023/01/12 15:38:15;;;;;;;3.63;1.20;;;;;;;;;;5025380;28;20046;-70
2023/01/12 15:40:43;;;;;;;2.80;0.98;;;;;;;;;;5033610;28;20048;-69
2023/01/12 15:43:14;;;;;;;3.05;0.70;;;;;;;;;;5032451;28;20088;-69
2023/01/12 15:45:42;;;;;;;3.00;0.93;;;;;;;;;;5029535;28;20083;-69
2023/01/12 15:48:08;;;;;;;2.92;0.90;;;;;;;;;;5030449;28;20113;-69
2023/01/12 15:50:39;;;;;;;2.08;0.70;;;;;;;;;;5030117;28;20060;-70
2023/01/12 15:53:11;;;;;;;2.00;0.60;;;;;;;;;;5031427;28;20057;-70
2023/01/12 15:55:38;;;;;;;2.25;0.85;;;;;;;;;;5030069;28;20132;-70